RJSY(METAR)
02/17 21:00
METAR RJSY 171200Z 17005KT 9999 FEW005 SCT020 BKN050 02/01 Q1004 RMK
1ST005 3CU020 5CU050 A2966=
戻る
トップページへ戻る
IMOC Co,.Ltd.